Time;durP1;ratioP1;P1;durP2;ratioP2;P2;SDS_P1;SDS_P2;PMS_P1;PMS_P2;Temp;Humidity;BMP_temperature;BMP_pressure;BME280_temperature;BME280_humidity;BME280_pressure;Samples;Min_cycle;Max_cycle;Signal;HPM_P1;HPM_P2
2024/01/13 00:00:21;;;;;;;52.97;24.70;;;;;;;;;;5004471;28;20186;-78
2024/01/13 00:02:47;;;;;;;63.92;26.30;;;;;;;;;;5003840;28;20410;-79
2024/01/13 00:05:13;;;;;;;55.20;26.90;;;;;;;;;;5005015;28;20182;-78
2024/01/13 00:07:39;;;;;;;58.90;25.00;;;;;;;;;;5004730;28;20785;-79
2024/01/13 00:10:07;;;;;;;56.95;25.25;;;;;;;;;;5003396;28;20407;-78
2024/01/13 00:12:33;;;;;;;49.13;22.23;;;;;;;;;;5002206;28;20183;-79
2024/01/13 00:14:59;;;;;;;51.13;24.13;;;;;;;;;;5004027;28;20182;-78
2024/01/13 00:17:25;;;;;;;48.57;23.33;;;;;;;;;;5004639;28;20410;-79
2024/01/13 00:19:51;;;;;;;63.47;26.67;;;;;;;;;;5003685;28;20424;-78
2024/01/13 00:22:17;;;;;;;57.70;26.57;;;;;;;;;;5003194;28;20186;-80
2024/01/13 00:24:43;;;;;;;48.57;23.87;;;;;;;;;;5003200;28;20415;-78
2024/01/13 00:27:09;;;;;;;61.73;25.27;;;;;;;;;;5004282;28;20481;-78
2024/01/13 00:29:35;;;;;;;54.92;25.65;;;;;;;;;;5003650;28;20426;-80
2024/01/13 00:32:01;;;;;;;48.55;25.05;;;;;;;;;;5004699;28;20186;-79
2024/01/13 00:34:27;;;;;;;55.03;27.20;;;;;;;;;;5003867;28;20194;-79
2024/01/13 00:36:53;;;;;;;56.53;25.37;;;;;;;;;;5003892;28;20187;-79
2024/01/13 00:39:19;;;;;;;60.85;23.95;;;;;;;;;;5003340;28;20405;-79
2024/01/13 00:41:45;;;;;;;50.50;24.33;;;;;;;;;;5003302;28;20190;-79
2024/01/13 00:44:10;;;;;;;50.40;24.50;;;;;;;;;;5004526;28;20187;-78
2024/01/13 00:46:36;;;;;;;49.60;24.00;;;;;;;;;;5003282;28;20461;-80
2024/01/13 00:49:02;;;;;;;61.43;25.10;;;;;;;;;;5004431;28;20437;-79
2024/01/13 00:51:30;;;;;;;63.95;25.35;;;;;;;;;;5003522;28;20417;-79
2024/01/13 00:53:56;;;;;;;53.85;24.08;;;;;;;;;;5001758;28;20193;-79
2024/01/13 00:56:22;;;;;;;49.58;23.75;;;;;;;;;;5003105;28;20194;-78
2024/01/13 00:58:48;;;;;;;53.47;23.15;;;;;;;;;;5003016;28;20187;-79
2024/01/13 01:01:15;;;;;;;56.78;24.42;;;;;;;;;;5002691;28;20497;-79
2024/01/13 01:03:41;;;;;;;47.92;22.65;;;;;;;;;;5003488;28;20236;-79
2024/01/13 01:06:07;;;;;;;56.72;25.17;;;;;;;;;;5003149;28;20309;-78
2024/01/13 01:08:33;;;;;;;60.67;23.85;;;;;;;;;;5002800;28;20243;-79
2024/01/13 01:10:59;;;;;;;56.80;24.70;;;;;;;;;;5003016;28;20191;-78
2024/01/13 01:13:24;;;;;;;47.57;21.20;;;;;;;;;;5003520;28;20843;-79
2024/01/13 01:15:50;;;;;;;47.80;22.27;;;;;;;;;;5004088;28;20425;-78
2024/01/13 01:18:16;;;;;;;54.63;23.23;;;;;;;;;;5003669;28;20189;-79
2024/01/13 01:20:42;;;;;;;60.37;25.80;;;;;;;;;;5003333;28;20189;-79
2024/01/13 01:23:08;;;;;;;47.05;24.20;;;;;;;;;;5003584;28;20440;-78
2024/01/13 01:25:34;;;;;;;46.50;23.07;;;;;;;;;;5004302;28;20206;-79
2024/01/13 01:28:00;;;;;;;54.55;22.75;;;;;;;;;;5004188;28;20420;-79
2024/01/13 01:30:26;;;;;;;58.13;26.60;;;;;;;;;;5004169;28;20179;-79
2024/01/13 01:32:52;;;;;;;59.03;25.23;;;;;;;;;;5003763;28;20194;-78
2024/01/13 01:35:18;;;;;;;54.65;24.20;;;;;;;;;;5004007;28;20489;-79
2024/01/13 01:37:44;;;;;;;55.67;24.00;;;;;;;;;;5003365;28;20246;-79
2024/01/13 01:40:14;;;;;;;48.93;23.00;;;;;;;;;;5004318;28;20421;-78
2024/01/13 01:42:40;;;;;;;45.55;22.67;;;;;;;;;;5003138;28;20418;-79
2024/01/13 01:45:06;;;;;;;48.53;22.50;;;;;;;;;;5003609;28;20258;-78
2024/01/13 01:47:33;;;;;;;46.03;22.50;;;;;;;;;;5003826;28;20602;-79
2024/01/13 01:49:59;;;;;;;51.80;24.05;;;;;;;;;;5003686;28;20184;-78
2024/01/13 01:52:25;;;;;;;68.68;26.25;;;;;;;;;;5003591;28;20179;-79
2024/01/13 01:54:51;;;;;;;53.15;26.77;;;;;;;;;;5003522;28;20186;-78
2024/01/13 01:57:19;;;;;;;57.90;23.27;;;;;;;;;;5002348;28;20244;-79
2024/01/13 01:59:45;;;;;;;48.90;23.75;;;;;;;;;;5001157;28;20647;-79
2024/01/13 02:02:11;;;;;;;48.13;23.25;;;;;;;;;;5002271;28;20202;-79
2024/01/13 02:04:37;;;;;;;45.15;23.30;;;;;;;;;;5002250;28;20268;-79
2024/01/13 02:07:03;;;;;;;52.45;23.45;;;;;;;;;;5002293;28;20202;-79
2024/01/13 02:09:30;;;;;;;43.00;21.60;;;;;;;;;;5002247;28;20275;-80
2024/01/13 02:11:56;;;;;;;52.22;24.10;;;;;;;;;;5004325;28;20178;-79
2024/01/13 02:14:22;;;;;;;58.17;23.05;;;;;;;;;;5005781;28;20578;-78
2024/01/13 02:16:48;;;;;;;57.03;23.83;;;;;;;;;;5005029;28;20186;-78
2024/01/13 02:19:14;;;;;;;55.22;25.88;;;;;;;;;;5005867;28;20626;-78
2024/01/13 02:21:40;;;;;;;49.87;22.77;;;;;;;;;;5005590;28;20186;-79
2024/01/13 02:24:06;;;;;;;51.10;23.30;;;;;;;;;;5005606;28;20909;-79
2024/01/13 02:26:34;;;;;;;53.17;24.40;;;;;;;;;;5004916;28;20472;-79
2024/01/13 02:29:00;;;;;;;55.55;24.42;;;;;;;;;;5000190;28;20195;-79
2024/01/13 02:31:26;;;;;;;49.05;22.75;;;;;;;;;;4985455;28;20212;-79
2024/01/13 02:33:52;;;;;;;53.60;24.30;;;;;;;;;;4986151;28;20199;-79
2024/01/13 02:36:18;;;;;;;58.95;26.17;;;;;;;;;;4986115;28;20412;-78
2024/01/13 02:38:44;;;;;;;55.30;26.85;;;;;;;;;;4985872;28;20651;-79
2024/01/13 02:41:10;;;;;;;57.30;23.63;;;;;;;;;;4985919;28;20194;-79
2024/01/13 02:43:37;;;;;;;47.37;21.50;;;;;;;;;;4986427;28;20243;-79
2024/01/13 02:46:03;;;;;;;44.28;22.23;;;;;;;;;;4985571;28;20864;-79
2024/01/13 02:48:31;;;;;;;52.80;23.63;;;;;;;;;;4986323;28;20196;-79
2024/01/13 02:51:02;;;;;;;48.05;22.70;;;;;;;;;;4986288;28;20282;-79
2024/01/13 02:53:28;;;;;;;48.55;24.02;;;;;;;;;;4985851;28;20169;-79
2024/01/13 02:55:54;;;;;;;52.00;22.40;;;;;;;;;;4984428;28;20198;-79
2024/01/13 02:58:20;;;;;;;56.22;23.13;;;;;;;;;;4986032;28;20223;-79
2024/01/13 03:00:46;;;;;;;48.53;23.50;;;;;;;;;;4986539;28;20199;-79
2024/01/13 03:03:12;;;;;;;50.03;22.57;;;;;;;;;;4986029;28;20532;-78
2024/01/13 03:05:38;;;;;;;43.15;21.30;;;;;;;;;;4986190;28;20466;-79
2024/01/13 03:08:04;;;;;;;53.53;22.90;;;;;;;;;;4984594;28;20190;-78
2024/01/13 03:10:31;;;;;;;51.72;23.17;;;;;;;;;;4999677;28;20419;-78
2024/01/13 03:12:57;;;;;;;44.60;20.58;;;;;;;;;;4995721;28;20271;-79
2024/01/13 03:15:23;;;;;;;49.63;22.80;;;;;;;;;;5005809;28;20536;-79
2024/01/13 03:17:49;;;;;;;45.50;21.97;;;;;;;;;;5006202;28;20278;-79
2024/01/13 03:20:15;;;;;;;46.40;22.37;;;;;;;;;;5004920;28;20898;-78
2024/01/13 03:22:41;;;;;;;53.88;24.48;;;;;;;;;;5005264;28;20414;-79
2024/01/13 03:25:08;;;;;;;44.13;22.07;;;;;;;;;;5005780;28;20214;-79
2024/01/13 03:27:34;;;;;;;43.13;20.88;;;;;;;;;;5005986;28;20519;-80
2024/01/13 03:30:00;;;;;;;44.00;23.10;;;;;;;;;;5006353;28;20274;-79
2024/01/13 03:32:25;;;;;;;42.22;19.83;;;;;;;;;;5006334;28;20413;-78
2024/01/13 03:34:51;;;;;;;42.87;19.87;;;;;;;;;;5005177;28;20528;-79
2024/01/13 03:37:17;;;;;;;48.13;22.43;;;;;;;;;;4999510;28;20451;-78
2024/01/13 03:39:43;;;;;;;45.30;22.47;;;;;;;;;;4986318;28;20502;-79
2024/01/13 03:42:09;;;;;;;39.30;21.25;;;;;;;;;;4985966;28;20414;-78
2024/01/13 03:44:35;;;;;;;57.45;22.90;;;;;;;;;;4987182;28;20269;-79
2024/01/13 03:47:01;;;;;;;51.70;21.30;;;;;;;;;;4986647;28;20216;-78
2024/01/13 03:49:27;;;;;;;46.80;21.55;;;;;;;;;;4985836;28;20478;-79
2024/01/13 03:51:53;;;;;;;47.90;22.10;;;;;;;;;;4985961;28;20189;-78
2024/01/13 03:54:19;;;;;;;50.33;22.27;;;;;;;;;;4985422;28;20414;-78
2024/01/13 03:56:45;;;;;;;44.03;21.53;;;;;;;;;;4985709;28;20189;-79
2024/01/13 03:59:14;;;;;;;47.45;21.70;;;;;;;;;;4994705;28;20442;-79
2024/01/13 04:01:40;;;;;;;51.78;22.70;;;;;;;;;;5005585;28;20208;-78
2024/01/13 04:04:06;;;;;;;44.75;23.95;;;;;;;;;;5000186;28;20229;-78
2024/01/13 04:06:32;;;;;;;51.42;20.33;;;;;;;;;;5004694;28;20580;-78
2024/01/13 04:08:58;;;;;;;47.97;20.80;;;;;;;;;;5004086;28;20189;-78
2024/01/13 04:11:24;;;;;;;44.10;20.80;;;;;;;;;;5004348;28;20417;-78
2024/01/13 04:13:50;;;;;;;46.63;21.97;;;;;;;;;;5005284;28;20417;-79
2024/01/13 04:16:16;;;;;;;50.50;20.87;;;;;;;;;;5004871;28;20417;-78
2024/01/13 04:18:42;;;;;;;46.60;21.40;;;;;;;;;;5003963;28;20475;-79
2024/01/13 04:21:08;;;;;;;45.07;22.97;;;;;;;;;;5005049;28;20440;-78
2024/01/13 04:23:34;;;;;;;52.25;22.17;;;;;;;;;;5004723;28;20406;-79
2024/01/13 04:26:00;;;;;;;45.90;21.38;;;;;;;;;;5003931;28;20218;-79
2024/01/13 04:28:26;;;;;;;46.83;21.47;;;;;;;;;;5004913;28;20190;-80
2024/01/13 04:30:52;;;;;;;44.75;20.73;;;;;;;;;;5003502;28;20441;-79
2024/01/13 04:33:18;;;;;;;46.53;21.43;;;;;;;;;;5003718;28;20249;-79
2024/01/13 04:35:44;;;;;;;41.03;18.87;;;;;;;;;;5003477;28;20417;-79
2024/01/13 04:38:10;;;;;;;49.60;23.08;;;;;;;;;;5004102;28;20471;-78
2024/01/13 04:40:37;;;;;;;50.07;21.60;;;;;;;;;;5004182;28;20196;-79
2024/01/13 04:43:04;;;;;;;40.78;19.67;;;;;;;;;;5003715;28;20425;-78
2024/01/13 04:45:30;;;;;;;40.25;20.08;;;;;;;;;;5004510;28;20286;-78
2024/01/13 04:47:57;;;;;;;38.77;20.13;;;;;;;;;;5004393;28;20218;-79
2024/01/13 04:50:23;;;;;;;48.40;22.02;;;;;;;;;;5004350;28;20896;-78
2024/01/13 04:52:48;;;;;;;42.30;21.60;;;;;;;;;;5003985;28;20243;-78
2024/01/13 04:55:14;;;;;;;39.90;20.17;;;;;;;;;;5003612;28;20421;-79
2024/01/13 04:57:40;;;;;;;42.03;20.80;;;;;;;;;;5000854;28;20520;-80
2024/01/13 05:00:07;;;;;;;38.85;19.52;;;;;;;;;;5004028;28;20746;-79
2024/01/13 05:02:33;;;;;;;42.60;19.27;;;;;;;;;;5004412;28;20191;-79
2024/01/13 05:04:59;;;;;;;45.45;22.33;;;;;;;;;;4998704;28;20596;-78
2024/01/13 05:07:25;;;;;;;43.05;21.25;;;;;;;;;;4984405;28;20231;-78
2024/01/13 05:09:51;;;;;;;40.10;21.50;;;;;;;;;;4984569;28;20193;-79
2024/01/13 05:12:17;;;;;;;47.07;21.07;;;;;;;;;;4983773;28;20403;-78
2024/01/13 05:14:44;;;;;;;41.10;20.17;;;;;;;;;;4983960;28;20439;-79
2024/01/13 05:17:10;;;;;;;49.30;21.85;;;;;;;;;;4983996;28;20191;-78
2024/01/13 05:19:36;;;;;;;39.27;20.07;;;;;;;;;;4983806;28;20190;-78
2024/01/13 05:22:02;;;;;;;40.03;19.37;;;;;;;;;;4983702;28;20446;-78
2024/01/13 05:24:28;;;;;;;50.63;20.67;;;;;;;;;;4984368;28;20419;-79
2024/01/13 05:26:54;;;;;;;36.80;20.20;;;;;;;;;;4983358;28;20550;-78
2024/01/13 05:29:20;;;;;;;44.08;20.30;;;;;;;;;;4983562;28;20422;-78
2024/01/13 05:31:49;;;;;;;46.45;21.17;;;;;;;;;;4983506;28;20202;-79
2024/01/13 05:34:15;;;;;;;38.22;18.90;;;;;;;;;;4983471;28;20186;-79
2024/01/13 05:36:41;;;;;;;41.38;20.48;;;;;;;;;;4983284;28;20190;-80
2024/01/13 05:39:07;;;;;;;31.13;18.03;;;;;;;;;;4983819;28;20175;-79
2024/01/13 05:41:33;;;;;;;37.93;17.57;;;;;;;;;;4983433;28;20474;-78
2024/01/13 05:43:59;;;;;;;38.90;19.70;;;;;;;;;;4984342;28;20411;-78
2024/01/13 05:46:25;;;;;;;38.77;17.93;;;;;;;;;;4986147;28;20484;-78
2024/01/13 05:48:51;;;;;;;38.87;19.80;;;;;;;;;;4987332;28;20407;-79
2024/01/13 05:51:17;;;;;;;35.25;18.67;;;;;;;;;;4987660;28;20421;-78
2024/01/13 05:53:44;;;;;;;38.83;20.00;;;;;;;;;;4987696;28;20187;-80
2024/01/13 05:56:10;;;;;;;28.90;17.02;;;;;;;;;;4987963;28;20450;-79
2024/01/13 05:58:37;;;;;;;38.77;20.83;;;;;;;;;;4987597;28;20198;-78
2024/01/13 06:01:03;;;;;;;47.03;19.45;;;;;;;;;;4995579;28;20437;-79
2024/01/13 06:03:29;;;;;;;46.90;18.05;;;;;;;;;;5006981;28;20238;-78
2024/01/13 06:05:55;;;;;;;30.75;17.90;;;;;;;;;;4996245;28;20215;-79
2024/01/13 06:08:21;;;;;;;32.43;18.20;;;;;;;;;;4987757;28;20204;-78
2024/01/13 06:10:47;;;;;;;33.63;18.10;;;;;;;;;;4986851;28;20409;-79
2024/01/13 06:13:13;;;;;;;30.60;17.83;;;;;;;;;;4987319;28;20494;-78
2024/01/13 06:15:38;;;;;;;35.70;19.90;;;;;;;;;;4993133;28;20425;-78
2024/01/13 06:18:04;;;;;;;45.93;19.93;;;;;;;;;;5006093;28;20452;-79
2024/01/13 06:20:31;;;;;;;33.50;18.98;;;;;;;;;;5006433;28;20460;-79
2024/01/13 06:22:57;;;;;;;31.15;17.33;;;;;;;;;;5005204;28;20183;-79
2024/01/13 06:25:23;;;;;;;35.23;17.10;;;;;;;;;;5005662;28;20197;-79
2024/01/13 06:27:48;;;;;;;28.80;17.40;;;;;;;;;;5005703;28;20231;-79
2024/01/13 06:30:14;;;;;;;34.33;19.97;;;;;;;;;;5005730;28;20465;-79
2024/01/13 06:32:40;;;;;;;30.17;17.45;;;;;;;;;;5005105;28;20482;-78
2024/01/13 06:35:07;;;;;;;36.80;18.07;;;;;;;;;;5005295;28;20214;-79
2024/01/13 06:37:33;;;;;;;31.23;18.50;;;;;;;;;;5005463;28;20413;-79
2024/01/13 06:39:59;;;;;;;31.60;18.87;;;;;;;;;;5005296;28;20233;-78
2024/01/13 06:42:25;;;;;;;30.05;18.27;;;;;;;;;;5004711;28;20429;-79
2024/01/13 06:44:51;;;;;;;30.03;18.47;;;;;;;;;;5005432;28;20183;-79
2024/01/13 06:47:17;;;;;;;27.90;17.55;;;;;;;;;;5005203;28;20461;-79
2024/01/13 06:49:43;;;;;;;35.75;18.80;;;;;;;;;;5005108;28;20183;-79
2024/01/13 06:52:12;;;;;;;31.77;18.77;;;;;;;;;;5004225;28;20180;-79
2024/01/13 06:54:38;;;;;;;33.17;18.63;;;;;;;;;;5017916;28;20185;-79
2024/01/13 06:57:04;;;;;;;32.90;16.90;;;;;;;;;;5025149;28;20181;-79
2024/01/13 06:59:30;;;;;;;30.48;19.90;;;;;;;;;;5024831;28;20408;-78
2024/01/13 07:01:56;;;;;;;29.65;18.63;;;;;;;;;;5024627;28;20185;-79
2024/01/13 07:04:22;;;;;;;30.53;18.17;;;;;;;;;;5007669;28;20602;-78
2024/01/13 07:06:48;;;;;;;30.02;18.88;;;;;;;;;;5005321;28;20492;-80
2024/01/13 07:09:14;;;;;;;33.72;19.10;;;;;;;;;;5006192;28;20213;-78
2024/01/13 07:11:40;;;;;;;31.05;18.90;;;;;;;;;;5005530;28;20240;-79
2024/01/13 07:14:06;;;;;;;37.30;18.50;;;;;;;;;;5004908;28;20335;-78
2024/01/13 07:16:32;;;;;;;38.47;19.37;;;;;;;;;;5004894;28;20751;-79
2024/01/13 07:18:59;;;;;;;33.20;18.33;;;;;;;;;;5005054;28;20750;-79
2024/01/13 07:21:25;;;;;;;33.58;19.75;;;;;;;;;;5004872;28;20469;-79
2024/01/13 07:23:51;;;;;;;28.43;19.70;;;;;;;;;;5003891;28;20576;-79
2024/01/13 07:26:17;;;;;;;28.20;18.63;;;;;;;;;;5004760;28;20568;-79
2024/01/13 07:28:43;;;;;;;40.90;19.87;;;;;;;;;;5005337;28;20430;-79
2024/01/13 07:31:09;;;;;;;35.80;20.60;;;;;;;;;;5005161;28;20414;-78
2024/01/13 07:33:35;;;;;;;32.53;20.13;;;;;;;;;;5004682;28;21021;-79
2024/01/13 07:36:01;;;;;;;31.00;20.70;;;;;;;;;;5005697;28;20183;-79
2024/01/13 07:38:27;;;;;;;36.00;20.52;;;;;;;;;;5005768;28;20417;-79
2024/01/13 07:40:53;;;;;;;33.20;19.93;;;;;;;;;;5004850;28;20181;-79
2024/01/13 07:43:20;;;;;;;37.75;21.27;;;;;;;;;;5004825;28;20418;-79
2024/01/13 07:45:46;;;;;;;35.38;22.13;;;;;;;;;;5004469;28;20220;-79
2024/01/13 07:48:12;;;;;;;40.80;22.13;;;;;;;;;;5005042;28;20211;-77
2024/01/13 07:50:38;;;;;;;32.78;20.50;;;;;;;;;;5005844;28;20410;-77
2024/01/13 07:53:04;;;;;;;37.25;21.00;;;;;;;;;;5006162;28;20193;-78
2024/01/13 07:55:30;;;;;;;31.83;20.47;;;;;;;;;;5005275;28;20186;-77
2024/01/13 07:57:56;;;;;;;33.25;21.67;;;;;;;;;;5004935;28;20481;-78
2024/01/13 08:00:23;;;;;;;31.20;21.67;;;;;;;;;;5004856;28;20647;-78
2024/01/13 08:02:49;;;;;;;34.67;22.13;;;;;;;;;;5004166;28;20516;-77
2024/01/13 08:05:15;;;;;;;31.92;19.13;;;;;;;;;;5005785;28;20174;-77
2024/01/13 08:07:41;;;;;;;33.70;21.00;;;;;;;;;;5005034;28;20211;-78
2024/01/13 08:10:07;;;;;;;29.90;19.90;;;;;;;;;;5004188;28;20255;-78
2024/01/13 08:12:33;;;;;;;31.55;19.10;;;;;;;;;;5005473;28;20411;-77
2024/01/13 08:14:59;;;;;;;26.47;20.57;;;;;;;;;;5005194;28;20270;-78
2024/01/13 08:17:25;;;;;;;27.20;19.97;;;;;;;;;;5004720;28;20422;-78
2024/01/13 08:19:51;;;;;;;31.52;19.02;;;;;;;;;;5012380;28;20417;-79
2024/01/13 08:22:17;;;;;;;25.70;17.00;;;;;;;;;;5024787;28;20182;-77
2024/01/13 08:24:43;;;;;;;31.67;19.37;;;;;;;;;;5024740;28;20505;-78
2024/01/13 08:27:09;;;;;;;28.35;19.70;;;;;;;;;;5025003;28;20987;-77
2024/01/13 08:29:35;;;;;;;23.23;16.60;;;;;;;;;;5024875;28;20177;-78
2024/01/13 08:32:01;;;;;;;26.80;19.47;;;;;;;;;;5023675;28;20170;-77
2024/01/13 08:34:27;;;;;;;30.17;19.10;;;;;;;;;;5023794;28;20463;-77
2024/01/13 08:36:53;;;;;;;25.38;18.55;;;;;;;;;;5009491;28;20190;-78
2024/01/13 08:39:19;;;;;;;26.00;19.10;;;;;;;;;;5004228;28;20214;-78
2024/01/13 08:41:45;;;;;;;25.23;18.13;;;;;;;;;;5003481;28;20907;-81
2024/01/13 08:44:11;;;;;;;27.57;17.63;;;;;;;;;;5000268;28;20190;-83
2024/01/13 08:46:37;;;;;;;28.20;17.30;;;;;;;;;;5005762;28;20473;-83
2024/01/13 08:49:04;;;;;;;28.42;18.90;;;;;;;;;;5017094;28;20191;-83
2024/01/13 08:51:30;;;;;;;24.20;17.42;;;;;;;;;;5018077;28;20186;-83
2024/01/13 08:53:56;;;;;;;22.92;17.60;;;;;;;;;;5015910;28;20603;-81
2024/01/13 08:56:22;;;;;;;24.03;16.40;;;;;;;;;;5017072;28;20196;-80
2024/01/13 08:58:48;;;;;;;23.60;14.20;;;;;;;;;;5017528;28;20427;-80
2024/01/13 09:01:15;;;;;;;21.03;14.30;;;;;;;;;;5018176;28;20529;-80
2024/01/13 09:03:41;;;;;;;21.27;15.38;;;;;;;;;;5018299;28;20868;-80
2024/01/13 09:06:09;;;;;;;22.88;13.95;;;;;;;;;;5018535;28;20195;-80
2024/01/13 09:08:35;;;;;;;20.30;14.70;;;;;;;;;;5003521;28;20280;-80
2024/01/13 09:11:01;;;;;;;22.23;13.97;;;;;;;;;;4998445;28;20198;-80
2024/01/13 09:13:27;;;;;;;23.93;15.10;;;;;;;;;;4999429;28;20409;-81
2024/01/13 09:15:53;;;;;;;30.23;16.40;;;;;;;;;;4998964;28;20440;-81
2024/01/13 09:18:19;;;;;;;18.33;11.70;;;;;;;;;;4999310;28;20513;-80
2024/01/13 09:20:44;;;;;;;23.70;12.50;;;;;;;;;;4998316;28;20408;-80
2024/01/13 09:23:10;;;;;;;20.67;13.43;;;;;;;;;;4999332;28;20413;-80
2024/01/13 09:25:36;;;;;;;19.10;13.30;;;;;;;;;;5000242;28;20524;-81
2024/01/13 09:28:02;;;;;;;18.00;12.37;;;;;;;;;;4999399;28;20409;-80
2024/01/13 09:30:29;;;;;;;15.82;10.80;;;;;;;;;;5000143;28;20403;-80
2024/01/13 09:32:54;;;;;;;16.95;11.15;;;;;;;;;;5000612;28;20210;-84
2024/01/13 09:35:20;;;;;;;15.97;11.17;;;;;;;;;;4996345;28;20246;-81
2024/01/13 09:37:47;;;;;;;18.23;12.43;;;;;;;;;;4999595;28;20426;-80
2024/01/13 09:40:13;;;;;;;20.38;11.10;;;;;;;;;;4999703;28;20175;-78
2024/01/13 09:42:50;;;;;;;14.70;10.43;;;;;;;;;;4999051;28;20658;-82
2024/01/13 09:45:16;;;;;;;16.35;11.73;;;;;;;;;;4999696;28;20186;-81
2024/01/13 09:47:45;;;;;;;17.10;10.23;;;;;;;;;;4999111;28;20217;-81
2024/01/13 09:50:11;;;;;;;13.10;10.25;;;;;;;;;;4998916;28;20655;-81
2024/01/13 09:52:38;;;;;;;21.48;12.70;;;;;;;;;;4995088;28;20195;-82
2024/01/13 09:55:06;;;;;;;17.63;12.27;;;;;;;;;;4986958;28;20199;-82
2024/01/13 09:57:32;;;;;;;13.30;8.80;;;;;;;;;;5005320;28;20218;-81
2024/01/13 09:59:57;;;;;;;16.03;12.00;;;;;;;;;;4986474;28;20187;-82
2024/01/13 10:02:23;;;;;;;22.27;10.80;;;;;;;;;;4979370;28;20423;-81
2024/01/13 10:04:50;;;;;;;20.90;11.67;;;;;;;;;;4980260;28;20511;-81
2024/01/13 10:07:16;;;;;;;11.77;9.05;;;;;;;;;;4979861;28;20490;-81
2024/01/13 10:09:43;;;;;;;15.23;9.30;;;;;;;;;;4979849;28;20623;-81
2024/01/13 10:12:09;;;;;;;15.20;10.45;;;;;;;;;;4983463;28;20422;-81
2024/01/13 10:14:38;;;;;;;19.30;10.88;;;;;;;;;;5000227;28;20171;-81
2024/01/13 10:17:04;;;;;;;16.17;10.43;;;;;;;;;;4999688;28;20218;-81
2024/01/13 10:19:30;;;;;;;14.90;10.30;;;;;;;;;;4998029;28;20183;-81
2024/01/13 10:21:56;;;;;;;15.70;9.43;;;;;;;;;;4991950;28;20209;-81
2024/01/13 10:24:22;;;;;;;16.77;10.18;;;;;;;;;;4999455;28;20190;-82
2024/01/13 10:26:48;;;;;;;13.50;9.53;;;;;;;;;;4999617;28;20225;-81
2024/01/13 10:29:14;;;;;;;14.67;9.60;;;;;;;;;;5009334;28;20479;-82
2024/01/13 10:31:40;;;;;;;17.50;9.23;;;;;;;;;;5019014;28;20409;-81
2024/01/13 10:34:10;;;;;;;12.63;9.85;;;;;;;;;;5021606;28;20659;-82
2024/01/13 10:36:36;;;;;;;13.40;9.15;;;;;;;;;;5022882;28;20537;-84
2024/01/13 10:39:02;;;;;;;13.15;9.18;;;;;;;;;;5005037;28;20197;-81
2024/01/13 10:41:30;;;;;;;13.70;9.47;;;;;;;;;;5003110;28;20178;-82
2024/01/13 10:43:56;;;;;;;14.63;9.73;;;;;;;;;;5002973;28;20406;-81
2024/01/13 10:46:23;;;;;;;15.63;8.90;;;;;;;;;;4999756;28;20537;-82
2024/01/13 10:48:51;;;;;;;13.98;8.80;;;;;;;;;;5003251;28;20183;-81
2024/01/13 10:51:28;;;;;;;14.00;10.10;;;;;;;;;;5007744;28;20673;-83
2024/01/13 10:53:55;;;;;;;12.52;9.52;;;;;;;;;;5002448;28;20257;-82
2024/01/13 10:56:21;;;;;;;12.23;8.35;;;;;;;;;;5004329;28;20195;-81
2024/01/13 10:58:48;;;;;;;14.82;9.20;;;;;;;;;;5001211;28;20228;-81
2024/01/13 11:01:14;;;;;;;15.05;8.70;;;;;;;;;;5002108;28;20191;-81
2024/01/13 11:03:45;;;;;;;17.05;8.70;;;;;;;;;;5003832;28;20571;-82
2024/01/13 11:06:11;;;;;;;15.65;9.38;;;;;;;;;;5003064;28;20202;-81
2024/01/13 11:08:37;;;;;;;14.32;9.82;;;;;;;;;;5003939;28;20270;-80
2024/01/13 11:11:03;;;;;;;13.30;9.05;;;;;;;;;;5004298;28;20178;-81
2024/01/13 11:13:31;;;;;;;14.25;10.32;;;;;;;;;;5003905;28;20183;-80
2024/01/13 11:15:59;;;;;;;13.63;8.07;;;;;;;;;;5004221;28;20254;-80
2024/01/13 11:18:26;;;;;;;14.70;9.20;;;;;;;;;;5004936;28;20210;-81
2024/01/13 11:21:07;;;;;;;14.30;9.65;;;;;;;;;;5004748;28;20175;-80
2024/01/13 11:23:40;;;;;;;16.58;10.38;;;;;;;;;;5003302;28;20207;-81
2024/01/13 11:26:07;;;;;;;18.00;9.10;;;;;;;;;;5003902;28;20293;-81
2024/01/13 11:28:43;;;;;;;14.35;9.02;;;;;;;;;;5004104;28;20639;-81
2024/01/13 11:31:28;;;;;;;14.23;9.23;;;;;;;;;;5004200;28;20182;-81
2024/01/13 11:33:55;;;;;;;12.85;9.45;;;;;;;;;;5002958;28;20176;-80
2024/01/13 11:36:21;;;;;;;14.23;8.90;;;;;;;;;;5003482;28;20186;-80
2024/01/13 11:38:47;;;;;;;19.50;9.35;;;;;;;;;;4998096;28;20206;-80
2024/01/13 11:41:13;;;;;;;14.25;9.75;;;;;;;;;;4989509;28;20183;-81
2024/01/13 11:43:45;;;;;;;14.40;9.00;;;;;;;;;;4991931;28;20201;-80
2024/01/13 11:46:11;;;;;;;13.55;9.98;;;;;;;;;;5004108;28;20204;-81
2024/01/13 11:48:41;;;;;;;14.85;9.38;;;;;;;;;;5006326;28;20189;-81
2024/01/13 11:51:15;;;;;;;15.23;9.43;;;;;;;;;;5003069;28;20179;-81
2024/01/13 11:53:43;;;;;;;21.65;9.60;;;;;;;;;;5003439;28;20554;-81
2024/01/13 11:56:09;;;;;;;16.33;10.10;;;;;;;;;;5003660;28;20178;-81
2024/01/13 11:58:36;;;;;;;20.17;12.95;;;;;;;;;;5004084;28;20190;-80
2024/01/13 12:01:04;;;;;;;17.20;10.85;;;;;;;;;;5003671;28;20188;-80
2024/01/13 12:03:30;;;;;;;15.10;11.10;;;;;;;;;;5003592;28;20234;-81
2024/01/13 12:05:56;;;;;;;17.17;10.02;;;;;;;;;;5003635;28;20204;-80
2024/01/13 12:08:25;;;;;;;17.40;12.20;;;;;;;;;;5003222;28;20197;-80
2024/01/13 12:10:53;;;;;;;14.43;9.30;;;;;;;;;;5003318;28;20179;-80
2024/01/13 12:13:19;;;;;;;17.98;12.27;;;;;;;;;;5005796;28;20189;-81
2024/01/13 12:15:46;;;;;;;22.58;11.10;;;;;;;;;;5022516;28;20194;-80
2024/01/13 12:18:22;;;;;;;16.48;9.88;;;;;;;;;;5022925;28;20177;-81
2024/01/13 12:20:58;;;;;;;18.92;13.43;;;;;;;;;;5023513;28;20188;-80
2024/01/13 12:23:27;;;;;;;21.10;12.57;;;;;;;;;;5022896;28;20193;-80
2024/01/13 12:25:54;;;;;;;20.52;14.57;;;;;;;;;;5022939;28;20193;-80
2024/01/13 12:28:20;;;;;;;23.10;14.80;;;;;;;;;;5021981;28;20539;-81
2024/01/13 12:30:49;;;;;;;20.48;13.07;;;;;;;;;;5022919;28;20186;-80
2024/01/13 12:33:17;;;;;;;22.95;12.60;;;;;;;;;;5022490;28;20171;-81
2024/01/13 12:35:43;;;;;;;25.40;14.82;;;;;;;;;;5022302;28;20240;-81
2024/01/13 12:38:10;;;;;;;27.63;14.60;;;;;;;;;;5021704;28;20182;-81
2024/01/13 12:40:36;;;;;;;21.58;14.00;;;;;;;;;;5022891;28;20540;-81
2024/01/13 12:43:02;;;;;;;23.17;14.35;;;;;;;;;;5022496;28;20176;-81
2024/01/13 12:45:28;;;;;;;23.85;14.23;;;;;;;;;;5021906;28;20220;-81
2024/01/13 12:47:54;;;;;;;28.92;14.15;;;;;;;;;;5020396;28;20205;-81
2024/01/13 12:50:21;;;;;;;27.00;14.50;;;;;;;;;;5002462;28;20639;-81
2024/01/13 12:52:47;;;;;;;42.22;18.77;;;;;;;;;;5002761;28;20181;-81
2024/01/13 12:55:13;;;;;;;27.75;17.55;;;;;;;;;;5002727;28;20218;-81
2024/01/13 12:57:39;;;;;;;21.42;14.65;;;;;;;;;;5002885;28;20192;-81
2024/01/13 13:00:06;;;;;;;19.30;11.35;;;;;;;;;;5002363;28;20207;-80
2024/01/13 13:02:32;;;;;;;22.38;14.25;;;;;;;;;;5002229;28;20182;-81
2024/01/13 13:04:58;;;;;;;23.92;14.68;;;;;;;;;;5002032;28;20230;-80
2024/01/13 13:07:26;;;;;;;26.30;15.07;;;;;;;;;;5001417;28;20217;-81
2024/01/13 13:09:52;;;;;;;33.03;17.25;;;;;;;;;;5002683;28;20181;-81
2024/01/13 13:12:21;;;;;;;23.73;14.40;;;;;;;;;;5004472;28;20189;-81
2024/01/13 13:14:47;;;;;;;26.52;17.52;;;;;;;;;;5021948;28;20679;-81
2024/01/13 13:17:14;;;;;;;30.00;16.48;;;;;;;;;;5021611;28;20188;-81
2024/01/13 13:19:40;;;;;;;24.55;15.60;;;;;;;;;;5021980;28;20178;-81
2024/01/13 13:22:07;;;;;;;30.58;18.95;;;;;;;;;;5021656;28;20192;-81
2024/01/13 13:24:34;;;;;;;27.70;17.45;;;;;;;;;;5021742;28;20209;-81
2024/01/13 13:27:00;;;;;;;32.63;18.50;;;;;;;;;;5021730;28;20226;-81
2024/01/13 13:29:26;;;;;;;27.30;17.25;;;;;;;;;;5021053;28;20179;-81
2024/01/13 13:31:52;;;;;;;33.30;16.83;;;;;;;;;;5022124;28;20183;-81
2024/01/13 13:34:18;;;;;;;25.83;15.43;;;;;;;;;;5021506;28;20411;-81
2024/01/13 13:36:44;;;;;;;27.87;13.53;;;;;;;;;;5007035;28;20214;-81
2024/01/13 13:39:10;;;;;;;32.45;18.90;;;;;;;;;;5005175;28;20421;-82
2024/01/13 13:41:36;;;;;;;32.78;20.63;;;;;;;;;;5021540;28;20201;-81
2024/01/13 13:44:03;;;;;;;29.08;16.85;;;;;;;;;;5021473;28;20233;-80
2024/01/13 13:46:30;;;;;;;25.98;15.77;;;;;;;;;;5019726;28;20785;-81
2024/01/13 13:48:56;;;;;;;34.25;19.15;;;;;;;;;;5020873;28;20208;-81
2024/01/13 13:51:21;;;;;;;33.87;19.60;;;;;;;;;;5021437;28;20629;-80
2024/01/13 13:53:47;;;;;;;35.40;19.40;;;;;;;;;;5021787;28;20424;-81
2024/01/13 13:56:13;;;;;;;27.37;16.50;;;;;;;;;;5021077;28;20448;-81
2024/01/13 13:58:40;;;;;;;27.60;17.87;;;;;;;;;;5021387;28;20420;-81
2024/01/13 14:01:06;;;;;;;34.03;17.55;;;;;;;;;;5020230;28;20487;-81
2024/01/13 14:03:32;;;;;;;29.88;18.60;;;;;;;;;;5020627;28;20252;-81
2024/01/13 14:05:58;;;;;;;30.80;18.88;;;;;;;;;;5020555;28;20628;-81
2024/01/13 14:08:26;;;;;;;27.17;17.23;;;;;;;;;;5023254;28;20198;-81
2024/01/13 14:10:52;;;;;;;32.88;20.58;;;;;;;;;;5025371;28;20186;-81
2024/01/13 14:13:19;;;;;;;30.00;19.50;;;;;;;;;;5024931;28;20647;-81